ADDS METAR Data INFO
IDs: Format: Raw Decoded Include TAF

Data at: 1147 UTC 25 Jun 2018

KJCT 251051Z AUTO 16008KT 10SM FEW033 24/19 A2996 RMK AO2 SLP103 T02440194
KJCT 250951Z AUTO 16008KT 10SM SCT026 OVC032 26/21 A2994 RMK AO2 SLP097 T02560206
KJCT 250851Z AUTO 18005KT 10SM FEW028 25/21 A2992 RMK AO2 SLP089 T02500206 50006
KJCT 250843Z AUTO 18009KT 10SM SCT028 26/21 A2992 RMK AO2 T02560206
KJCT 250805Z AUTO 16008KT 10SM BKN025 25/21 A2993 RMK AO2 T02500206
KJCT 250751Z AUTO 16008G16KT 10SM SCT025 25/21 A2992 RMK AO2 SLP090 T02500206
KJCT 250651Z AUTO 15010G19KT 10SM CLR 26/21 A2992 RMK AO2 SLP089 T02610206
KJCT 250551Z AUTO 16014G22KT 10SM CLR 27/21 A2990 RMK AO2 SLP084 T02720211 10361 20272 403830250 50010
KJCT 250451Z AUTO 16012G22KT 10SM CLR 28/21 A2991 RMK AO2 SLP087 T02830211
KJCT 250351Z AUTO 15014G21KT 10SM CLR 29/21 A2990 RMK AO2 SLP085 T02940206
KJCT 250251Z AUTO 15013KT 10SM CLR 31/19 A2987 RMK AO2 SLP073 T03110194 53025
KJCT 250151Z AUTO 15011G19KT 10SM CLR 33/18 A2984 RMK AO2 SLP062 T03280183
KJCT 250051Z AUTO 15013KT 10SM CLR 34/18 A2982 RMK AO2 SLP056 T03440178
KJCT 242351Z AUTO 16016G25KT 10SM CLR 36/16 A2979 RMK AO2 PK WND 14028/2253 SLP046 T03610161 10383 20344 55004
KJCT 242251Z AUTO 16017G29KT 10SM CLR 37/17 A2979 RMK AO2 PK WND 17031/2208 SLP045 T03670167
KJCT 242151Z AUTO 16016G27KT 10SM CLR 38/14 A2979 RMK AO2 PK WND 15027/2145 SLP046 T03780144
KJCT 242051Z AUTO 17012G26KT 10SM CLR 38/15 A2981 RMK AO2 PK WND 16029/2038 SLP049 T03830150 58014
KJCT 241951Z AUTO 17015G22KT 10SM CLR 38/17 A2982 RMK AO2 SLP054 T03780167
KJCT 241851Z AUTO 17017G23KT 10SM CLR 36/17 A2984 RMK AO2 SLP061 T03610172
KJCT 241751Z AUTO 19014G21KT 10SM CLR 34/20 A2985 RMK AO2 SLP064 T03440200 10344 20250 58006
KJCT 241651Z AUTO 19014G21KT 10SM CLR 32/22 A2986 RMK AO2 SLP069 T03170217
KJCT 241551Z AUTO 19012KT 9SM FEW027 29/22 A2987 RMK AO2 SLP074 T02940222
KJCT 241546Z AUTO 17014KT 9SM SCT027 29/22 A2987 RMK AO2
KJCT 241451Z AUTO 20012KT 8SM BKN019 27/22 A2988 RMK AO2 SLP078 T02720222 51012
KJCT 241351Z AUTO 17015G24KT 7SM OVC020 26/22 A2988 RMK AO2 PK WND 19030/1335 SLP076 T02560217
KJCT 241251Z AUTO 18014G21KT 9SM OVC023 26/21 A2985 RMK AO2 SLP067 T02560211
KJCT 241237Z AUTO 18011G22KT 9SM BKN025 26/21 A2985 RMK AO2 T02560211
KJCT 241218Z AUTO 17016G23KT 9SM SCT023 26/21 A2984 RMK AO2 T02560211
KJCT 241159Z AUTO 18013G19KT 9SM BKN023 25/21 A2984 RMK AO2 T02500211
KJCT 241151Z AUTO 18011G20KT 9SM SCT023 25/21 A2985 RMK AO2 SLP063 T02500211 10294 20250 53002
KJCT 241051Z AUTO 18013KT 10SM SCT022 26/21 A2984 RMK AO2 SLP063 T02560211
KJCT 240951Z AUTO 18011G22KT 10SM CLR 26/22 A2983 RMK AO2 SLP057 T02610217
KJCT 240851Z AUTO 18010KT 9SM CLR 27/23 A2984 RMK AO2 SLP060 T02670228 58014
KJCT 240751Z AUTO 13008KT 9SM SCT025 SCT037 28/23 A2988 RMK AO2 SLP074 T02830233
KJCT 240659Z AUTO 13011KT 9SM SCT028 OVC033 29/24 A2988 RMK AO2 T02890239
KJCT 240651Z AUTO 13008KT 9SM BKN029 OVC035 29/24 A2988 RMK AO2 SLP074 T02890239
KJCT 240646Z AUTO 13010KT 10SM BKN028 OVC035 29/24 A2988 RMK AO2
KJCT 240622Z AUTO 12009KT 10SM OVC030 29/24 A2989 RMK AO2 T02940239
KJCT 240551Z AUTO VRB05KT 10SM BKN029 29/23 A2989 RMK AO2 SLP077 T02940233 10378 20294 403940261 51037
KJCT 240451Z AUTO 13009KT 10SM CLR 31/22 A2987 RMK AO2 SLP071 T03060222
KJCT 240351Z AUTO 16009G18KT 10SM CLR 32/21 A2981 RMK AO2 SLP051 T03170211
KJCT 240251Z AUTO 15015KT 10SM CLR 33/22 A2977 RMK AO2 SLP039 T03280217 53017
KJCT 240151Z AUTO 16014G22KT 10SM CLR 34/21 A2974 RMK AO2 SLP029 T03390211
KJCT 240051Z AUTO 17013KT 10SM CLR 36/20 A2972 RMK AO2 SLP022 T03560200
KJCT 232351Z AUTO 16012KT 10SM CLR 38/19 A2972 RMK AO2 SLP020 T03780194 10394 20344 56010